Airfield :
LOGIN :

Register | Disclaimer

   EN    FR    IT 

 










Legend :    VFR   Marginal VFR   IFR   Intensive IFR   Very Intensive IFR
Visi :
Ceiling :
>= 8 km
>= 3000ft
5 to 8 km
1000 to 3000 ft
1500m to 5 km
500 to 1000 ft
800 to 1500m
200 to 500 ft
< 800m
< 200 ft
Symbols :   Thunderstorms  Fog  Heavy snow  Heavy precipitations  Wind > 20 kt
SIGMETs :     Misc.  Thunderstorms  Icing  Turbulence  Mountain Waves  Volcanic Ashes






- Airport Elevation : 313 ft
- IATA code : LEH


LFOH - Le Havre Octeville

CURRENT METAR :
  • 290630Z AUTO 05021KT 9999 FEW040 OVC049 05/M02 Q1031 TEMPO 04027G45KT 4000 SHRAGS BKN008 BKN030TCU

EXPIRED METARs :
  • 290600Z AUTO 05020KT 9999 FEW045 OVC054 05/M02 Q1030
  • 290530Z AUTO 05019KT 9999 FEW038 SCT048 OVC056 05/M01 Q1030
  • 290500Z AUTO 05020KT 9999 FEW037 SCT045 OVC054 05/M02 Q1030
  • 290430Z AUTO 05020KT 9999 BKN034 BKN045 OVC054 04/00 Q1030
  • 290400Z AUTO 06017KT 9999 BKN038 BKN044 OVC052 05/M00 Q1030

TAF TAF LFOH
Valid from the 29 at 06:00 until the 30 at 06:00 UTC


290500Z 2906/3006 04020G35KT 9999 BKN030
TEMPO 2906/2920 04027G45KT
TEMPO 2906/2920 4000 SHRAGS BKN030TCU
PROB30
TEMPO 2906/2911 BKN008 BKN030TCU
BECMG 2923/3001 06015G25KT
ATIS : +33 2 35 54 64 93



MET'MAP, your aeronautical weather chart ! - Copyright ORBIFLY December 2007 - Disclaimer

ORBIFLY MET'MAP TEAM :

Programming & Development : Alexandra Zaïnal
Concept & original design : Baudouin d'Aumeries
Assistance for programming : Marc-Olivier Méhu
Technical & hardware support : Manuel Goepfert

Contact : metmap@orbifly.com




SOURCES & CREDITS :

   NOAA